Time;durP1;ratioP1;P1;durP2;ratioP2;P2;SDS_P1;SDS_P2;PMS_P1;PMS_P2;Temp;Humidity;BMP_temperature;BMP_pressure;BME280_temperature;BME280_humidity;BME280_pressure;Samples;Min_cycle;Max_cycle;Signal;HPM_P1;HPM_P2
2022/12/25 00:01:30;;;;;;;5.90;5.05;;;16.00;69.80;;;;;;10328914;28;20025;-47
2022/12/25 00:06:31;;;;;;;5.57;3.63;;;15.90;69.80;;;;;;10329473;28;20042;-48
2022/12/25 00:11:32;;;;;;;6.13;3.38;;;16.00;69.70;;;;;;10369410;28;20088;-48
2022/12/25 00:16:32;;;;;;;5.25;4.15;;;16.00;69.50;;;;;;10367764;28;20030;-47
2022/12/25 00:21:33;;;;;;;7.22;3.60;;;16.00;69.60;;;;;;10368695;28;20069;-48
2022/12/25 00:26:34;;;;;;;6.20;3.58;;;16.00;69.60;;;;;;10368446;28;20062;-51
2022/12/25 00:31:35;;;;;;;6.18;3.25;;;16.00;69.40;;;;;;10350928;28;20160;-48
2022/12/25 00:36:36;;;;;;;7.22;3.42;;;16.00;69.50;;;;;;10366562;28;20025;-47
2022/12/25 00:46:55;;;;;;;6.67;4.00;;;15.90;69.50;;;;;;10368155;28;20046;-47
2022/12/25 00:51:56;;;;;;;6.38;3.20;;;16.00;69.40;;;;;;10367723;28;20061;-49
2022/12/25 00:56:57;;;;;;;4.47;2.85;;;16.00;69.50;;;;;;10367197;28;20100;-48
2022/12/25 01:02:22;;;;;;;5.68;3.00;;;16.00;69.60;;;;;;10354347;28;20112;-48
2022/12/25 01:07:24;;;;;;;4.60;2.78;;;16.00;69.40;;;;;;10343278;28;20038;-48
2022/12/25 01:12:25;;;;;;;6.18;3.78;;;16.00;69.40;;;;;;10326088;28;20109;-47
2022/12/25 01:17:26;;;;;;;6.50;3.00;;;16.00;69.50;;;;;;10308882;28;20482;-47
2022/12/25 01:22:27;;;;;;;5.13;3.85;;;16.00;69.50;;;;;;10353292;28;20018;-48
2022/12/25 01:27:27;;;;;;;5.28;2.80;;;16.00;69.30;;;;;;10348424;28;20042;-46
2022/12/25 01:32:28;;;;;;;6.72;2.97;;;16.00;69.40;;;;;;10365226;28;20018;-46
2022/12/25 01:37:29;;;;;;;4.43;3.05;;;15.90;69.50;;;;;;10348212;28;20112;-51
2022/12/25 01:42:30;;;;;;;5.75;3.50;;;16.00;69.40;;;;;;10340085;28;20060;-46
2022/12/25 01:47:30;;;;;;;4.95;2.60;;;16.00;69.30;;;;;;10325176;28;20042;-47
2022/12/25 01:52:31;;;;;;;4.15;2.70;;;16.00;69.40;;;;;;10307101;28;20010;-47
2022/12/25 01:57:34;;;;;;;6.40;2.97;;;16.00;69.40;;;;;;10324815;28;20030;-46
2022/12/25 02:02:37;;;;;;;5.40;3.22;;;16.00;69.10;;;;;;10307268;28;20101;-48
2022/12/25 02:07:40;;;;;;;4.95;2.80;;;16.00;69.10;;;;;;10321052;28;20022;-46
2022/12/25 02:12:42;;;;;;;4.25;2.55;;;16.00;69.30;;;;;;10347699;28;20532;-47
2022/12/25 02:18:19;;;;;;;4.88;3.03;;;16.00;69.20;;;;;;10335253;28;20049;-48
2022/12/25 02:23:47;;;;;;;3.83;2.58;;;16.00;69.10;;;;;;10330522;28;20548;-46
2022/12/25 02:29:30;;;;;;;3.63;2.40;;;16.00;69.30;;;;;;10351251;28;20033;-49
2022/12/25 02:34:50;;;;;;;5.55;3.35;;;16.00;69.30;;;;;;10364232;28;20026;-46
2022/12/25 02:40:32;;;;;;;3.60;2.50;;;16.00;69.20;;;;;;10348706;28;20042;-49
2022/12/25 03:07:19;;;;;;;5.50;2.13;;;15.90;69.20;;;;;;10371853;28;20053;-46
2022/12/25 03:13:00;;;;;;;3.65;2.30;;;16.00;69.20;;;;;;10353973;28;20131;-47
2022/12/25 03:18:06;;;;;;;3.38;2.53;;;16.00;69.10;;;;;;10322381;28;20042;-47
2022/12/25 03:28:27;;;;;;;3.45;2.05;;;15.90;69.10;;;;;;10356390;28;20157;-49
2022/12/25 04:39:28;;;;;;;3.10;1.88;;;15.90;69.00;;;;;;10170694;29;20036;-47
2022/12/25 04:44:28;;;;;;;3.35;2.10;;;16.00;68.90;;;;;;10308855;28;20445;-47
2022/12/25 04:49:29;;;;;;;2.65;1.63;;;16.00;68.90;;;;;;10322352;28;20194;-47
2022/12/25 04:54:30;;;;;;;3.00;2.13;;;15.90;69.10;;;;;;10367294;28;20026;-47
2022/12/25 04:59:30;;;;;;;2.67;1.30;;;16.00;68.90;;;;;;10349014;28;20387;-49
2022/12/25 05:04:31;;;;;;;3.17;1.48;;;16.00;68.90;;;;;;10365421;28;20635;-49
2022/12/25 05:09:32;;;;;;;2.67;1.70;;;16.00;68.90;;;;;;10349500;28;20050;-48
2022/12/25 05:14:32;;;;;;;2.50;2.03;;;15.90;68.80;;;;;;10326203;28;20450;-47
2022/12/25 05:19:33;;;;;;;2.95;2.08;;;16.00;68.90;;;;;;10348367;28;20363;-56
2022/12/25 05:24:34;;;;;;;2.45;1.45;;;16.00;68.90;;;;;;10353637;28;20032;-56
2022/12/25 05:29:34;;;;;;;3.83;1.67;;;16.00;68.90;;;;;;10366194;28;20118;-56
2022/12/25 05:34:35;;;;;;;3.03;1.77;;;16.00;68.90;;;;;;10364261;28;20073;-53
2022/12/25 05:39:36;;;;;;;3.75;1.80;;;16.00;68.90;;;;;;10349977;28;20610;-56
2022/12/25 05:44:36;;;;;;;2.72;1.80;;;16.00;68.90;;;;;;10335049;28;20111;-56
2022/12/25 05:49:37;;;;;;;3.13;1.70;;;16.00;68.90;;;;;;10347203;28;20064;-56
2022/12/25 05:54:37;;;;;;;4.68;1.67;;;16.00;68.90;;;;;;10344844;28;20433;-56
2022/12/25 05:59:38;;;;;;;3.58;1.98;;;16.00;68.90;;;;;;10350033;28;20146;-56
2022/12/25 06:04:39;;;;;;;1.95;1.48;;;16.00;68.90;;;;;;10364024;28;20125;-54
2022/12/25 06:09:40;;;;;;;3.38;1.70;;;15.90;68.90;;;;;;10350166;28;20115;-53
2022/12/25 06:14:40;;;;;;;2.95;1.40;;;15.90;68.70;;;;;;10330093;28;20010;-53
2022/12/25 06:19:41;;;;;;;2.97;1.67;;;16.00;68.60;;;;;;10346693;28;20025;-56
2022/12/25 06:24:42;;;;;;;7.68;1.92;;;16.00;69.50;;;;;;10346511;28;20034;-56
2022/12/25 06:29:43;;;;;;;4.57;1.90;;;16.00;69.40;;;;;;10337619;28;20606;-56
2022/12/25 06:34:44;;;;;;;10.77;2.20;;;16.00;69.80;;;;;;10360562;28;20042;-54
2022/12/25 06:39:46;;;;;;;7.13;1.80;;;16.10;69.50;;;;;;10342307;28;20015;-55
2022/12/25 06:44:47;;;;;;;9.73;2.42;;;16.20;69.80;;;;;;10337188;28;20026;-55
2022/12/25 06:49:48;;;;;;;6.07;1.85;;;16.20;69.80;;;;;;10329479;28;20114;-54
2022/12/25 06:54:48;;;;;;;25.42;2.30;;;16.20;70.60;;;;;;10324399;28;20050;-55
2022/12/25 06:59:49;;;;;;;7.00;2.00;;;16.20;71.00;;;;;;10340978;28;20101;-54
2022/12/25 07:04:51;;;;;;;7.55;2.10;;;16.10;70.80;;;;;;10349988;28;20109;-55
2022/12/25 07:09:51;;;;;;;16.90;3.35;;;16.10;71.00;;;;;;10338112;28;20583;-52
2022/12/25 07:14:55;;;;;;;11.77;2.45;;;16.10;71.10;;;;;;10337170;28;20103;-51
2022/12/25 07:19:56;;;;;;;9.75;2.25;;;16.10;71.20;;;;;;10354890;28;20029;-55
2022/12/25 07:24:56;;;;;;;11.23;1.90;;;16.10;71.20;;;;;;10336924;28;20132;-54
2022/12/25 07:29:57;;;;;;;11.25;3.00;;;16.10;71.40;;;;;;10366465;28;20072;-53
2022/12/25 07:34:58;;;;;;;13.73;2.75;;;16.10;71.60;;;;;;10337325;28;20161;-54
2022/12/25 07:39:58;;;;;;;18.38;3.20;;;16.00;71.80;;;;;;10338709;28;20025;-54
2022/12/25 07:44:59;;;;;;;31.55;4.88;;;16.10;71.90;;;;;;10344468;28;20057;-56
2022/12/25 07:49:59;;;;;;;15.77;3.13;;;16.00;71.90;;;;;;10345208;28;20581;-55
2022/12/25 07:55:00;;;;;;;12.85;3.80;;;16.00;72.10;;;;;;10364639;28;20072;-55
2022/12/25 08:00:03;;;;;;;22.25;3.85;;;15.90;72.20;;;;;;10360623;28;20041;-53
2022/12/25 08:05:05;;;;;;;15.77;3.15;;;16.00;72.10;;;;;;10358770;28;20057;-57
2022/12/25 08:10:06;;;;;;;20.33;3.10;;;16.00;72.00;;;;;;10353040;28;20046;-53
2022/12/25 08:15:08;;;;;;;25.38;4.45;;;16.00;72.40;;;;;;10361620;28;20105;-56
2022/12/25 08:20:09;;;;;;;20.65;4.05;;;16.00;72.20;;;;;;10364992;28;20363;-57
2022/12/25 08:25:10;;;;;;;13.48;3.35;;;15.90;72.40;;;;;;10341492;28;20484;-56
2022/12/25 08:30:11;;;;;;;21.88;4.13;;;15.90;72.50;;;;;;10365751;28;20021;-57
2022/12/25 08:35:11;;;;;;;30.60;4.68;;;15.90;72.60;;;;;;10363231;28;20037;-53
2022/12/25 08:40:12;;;;;;;16.85;3.88;;;15.80;72.50;;;;;;10339868;28;20018;-55
2022/12/25 08:45:13;;;;;;;18.95;3.28;;;15.80;72.50;;;;;;10328680;28;20061;-55
2022/12/25 08:50:14;;;;;;;14.10;3.80;;;15.80;72.80;;;;;;10345420;28;20014;-53
2022/12/25 08:55:15;;;;;;;26.38;4.22;;;15.80;72.60;;;;;;10312897;28;20022;-56
2022/12/25 09:00:16;;;;;;;20.02;3.55;;;15.80;72.40;;;;;;10345314;28;20022;-56
2022/12/25 09:05:17;;;;;;;17.10;4.15;;;15.80;72.70;;;;;;10342862;28;20050;-54
2022/12/25 09:10:17;;;;;;;22.80;3.95;;;15.90;72.70;;;;;;10351502;28;20129;-54
2022/12/25 09:15:18;;;;;;;22.92;3.25;;;15.80;72.80;;;;;;10347522;28;20064;-54
2022/12/25 09:20:19;;;;;;;12.70;4.03;;;15.80;72.90;;;;;;10345608;28;20030;-53
2022/12/25 09:25:20;;;;;;;21.20;4.35;;;15.80;72.40;;;;;;10362171;28;20101;-56
2022/12/25 09:30:20;;;;;;;13.55;3.42;;;15.70;72.90;;;;;;10363680;28;20022;-54
2022/12/25 09:35:21;;;;;;;20.50;3.50;;;15.70;73.00;;;;;;10344484;28;20049;-56
2022/12/25 09:40:24;;;;;;;13.85;3.78;;;15.70;73.00;;;;;;10345780;28;20030;-55
2022/12/25 09:45:35;;;;;;;14.18;2.60;;;15.60;72.70;;;;;;10299453;28;20026;-55
2022/12/25 09:50:50;;;;;;;12.45;3.13;;;15.60;72.60;;;;;;10343893;28;20497;-55
2022/12/25 09:56:05;;;;;;;7.35;2.65;;;15.60;72.30;;;;;;10341370;28;20045;-54
2022/12/25 10:01:18;;;;;;;9.07;2.58;;;15.60;72.20;;;;;;10322943;28;20413;-55
2022/12/25 10:06:30;;;;;;;17.17;3.05;;;15.60;72.00;;;;;;10363576;28;20373;-55
2022/12/25 10:12:01;;;;;;;8.90;2.40;;;15.70;71.70;;;;;;10348842;28;20513;-55
2022/12/25 10:17:42;;;;;;;6.78;2.70;;;15.70;71.40;;;;;;10364357;28;20026;-56
2022/12/25 10:22:51;;;;;;;8.35;2.13;;;15.80;71.10;;;;;;10339576;28;20021;-56
2022/12/25 10:28:02;;;;;;;12.17;2.30;;;15.80;70.80;;;;;;10319736;28;20119;-58
2022/12/25 10:33:03;;;;;;;14.10;2.53;;;15.80;71.70;;;;;;10317531;28;20109;-61
2022/12/25 10:38:14;;;;;;;9.63;2.25;;;16.00;71.80;;;;;;10363752;28;20057;-56
2022/12/25 10:43:24;;;;;;;13.70;2.70;;;16.10;71.50;;;;;;10357225;28;20113;-53
2022/12/25 10:48:28;;;;;;;19.60;3.40;;;16.30;72.70;;;;;;10330531;28;20152;-55
2022/12/25 10:53:39;;;;;;;12.73;2.97;;;16.50;73.00;;;;;;10352198;28;20007;-55
2022/12/25 10:58:39;;;;;;;10.20;2.83;;;16.70;71.90;;;;;;10362608;28;20108;-54
2022/12/25 11:03:46;;;;;;;12.80;2.67;;;16.70;71.80;;;;;;10346260;28;20050;-55
2022/12/25 11:08:58;;;;;;;8.43;3.10;;;16.70;72.40;;;;;;10358335;28;20113;-54
2022/12/25 11:14:01;;;;;;;9.63;2.15;;;16.60;73.50;;;;;;10369166;28;20390;-56
2022/12/25 11:19:19;;;;;;;7.63;2.40;;;16.50;73.80;;;;;;10367093;28;20013;-56
2022/12/25 11:24:24;;;;;;;8.93;2.30;;;16.40;73.80;;;;;;10347586;28;20034;-56
2022/12/25 11:29:46;;;;;;;12.95;3.60;;;16.40;73.70;;;;;;10345077;28;20065;-56
2022/12/25 11:34:47;;;;;;;11.55;2.75;;;16.40;73.70;;;;;;10350500;28;20349;-56
2022/12/25 11:39:48;;;;;;;14.70;3.00;;;16.30;73.00;;;;;;10345958;28;20126;-56
2022/12/25 11:45:06;;;;;;;10.70;2.90;;;16.30;73.40;;;;;;10360157;28;20036;-54
2022/12/25 11:50:31;;;;;;;8.48;3.03;;;16.20;73.40;;;;;;10330293;28;20630;-54
2022/12/25 11:55:43;;;;;;;100.82;71.60;;;16.10;73.40;;;;;;10360100;28;20026;-52
2022/12/25 12:00:46;;;;;;;116.18;85.50;;;15.90;73.60;;;;;;10334875;28;20449;-54
2022/12/25 12:05:58;;;;;;;84.57;51.88;;;16.00;73.40;;;;;;10365315;28;20056;-56
2022/12/25 12:11:22;;;;;;;46.60;29.48;;;15.90;73.10;;;;;;10330925;28;20069;-55
2022/12/25 12:16:23;;;;;;;35.78;21.20;;;15.90;72.80;;;;;;10342254;28;20052;-56
2022/12/25 12:21:28;;;;;;;28.27;14.02;;;16.00;72.50;;;;;;10367072;28;20022;-48
2022/12/25 12:26:35;;;;;;;28.85;13.80;;;16.10;72.60;;;;;;10346109;28;20070;-54
2022/12/25 12:31:46;;;;;;;24.17;12.60;;;16.20;71.50;;;;;;10333516;28;20042;-54
2022/12/25 12:36:48;;;;;;;25.45;10.15;;;16.30;71.40;;;;;;10356757;28;20041;-52
2022/12/25 12:41:49;;;;;;;19.73;9.00;;;16.40;71.40;;;;;;10362672;28;20290;-55
2022/12/25 12:46:55;;;;;;;14.95;8.07;;;16.40;71.70;;;;;;10361001;28;20509;-56
2022/12/25 12:52:23;;;;;;;14.13;7.30;;;16.50;70.80;;;;;;10361212;28;20102;-57
2022/12/25 12:57:32;;;;;;;14.68;7.18;;;16.50;70.70;;;;;;10356829;28;20025;-55
2022/12/25 13:02:46;;;;;;;20.50;6.53;;;16.50;71.60;;;;;;10361323;28;20020;-55
2022/12/25 13:07:55;;;;;;;16.52;6.65;;;16.40;72.00;;;;;;10358539;28;20056;-56
2022/12/25 13:13:01;;;;;;;10.05;6.43;;;16.60;71.80;;;;;;10339585;28;20486;-50
2022/12/25 13:18:08;;;;;;;14.15;6.65;;;16.60;71.90;;;;;;10353737;28;20056;-52
2022/12/25 13:23:31;;;;;;;10.32;5.75;;;16.50;72.30;;;;;;10359221;28;20029;-54
2022/12/25 13:28:35;;;;;;;12.25;5.85;;;16.60;72.00;;;;;;10356592;28;20046;-53
2022/12/25 13:33:36;;;;;;;10.13;5.82;;;16.60;71.20;;;;;;10343048;28;20109;-57
2022/12/25 13:38:43;;;;;;;12.10;5.03;;;16.60;71.50;;;;;;10377257;28;20025;-56
2022/12/25 13:43:46;;;;;;;11.07;6.85;;;16.50;71.70;;;;;;10359775;28;20640;-52
2022/12/25 13:48:58;;;;;;;11.00;6.32;;;16.60;71.30;;;;;;10356098;28;20084;-54
2022/12/25 13:54:08;;;;;;;13.05;6.13;;;16.50;71.90;;;;;;10355381;28;20014;-52
2022/12/25 13:59:18;;;;;;;16.20;7.03;;;16.50;72.00;;;;;;10359751;28;20018;-53
2022/12/25 14:04:23;;;;;;;14.20;6.80;;;16.50;72.10;;;;;;10357965;28;20030;-54
2022/12/25 14:09:24;;;;;;;19.52;7.63;;;16.40;72.30;;;;;;10308468;28;1038685;-55
2022/12/25 14:14:25;;;;;;;12.00;6.88;;;16.50;72.50;;;;;;10344535;28;20057;-45
2022/12/25 14:19:32;;;;;;;19.63;7.55;;;16.40;72.30;;;;;;10357398;28;20905;-55
2022/12/25 14:24:33;;;;;;;14.48;5.07;;;16.30;72.10;;;;;;10362543;28;20029;-53
2022/12/25 14:29:38;;;;;;;9.50;4.82;;;16.30;71.60;;;;;;10362844;28;20030;-53
2022/12/25 14:34:40;;;;;;;11.30;4.80;;;16.20;71.70;;;;;;10359529;28;20029;-54
2022/12/25 14:39:46;;;;;;;15.35;5.28;;;16.10;71.80;;;;;;10356840;28;20034;-52
2022/12/25 14:45:01;;;;;;;11.75;4.32;;;16.10;71.90;;;;;;10321402;28;20023;-50
2022/12/25 14:50:14;;;;;;;9.57;4.82;;;16.00;72.00;;;;;;10347053;28;20030;-52
2022/12/25 14:55:25;;;;;;;12.80;4.35;;;15.90;72.10;;;;;;10359709;28;20032;-53
2022/12/25 15:00:36;;;;;;;7.80;4.85;;;15.90;72.10;;;;;;10358135;28;20010;-52
2022/12/25 15:05:38;;;;;;;8.77;4.38;;;15.90;72.20;;;;;;10361674;28;20044;-53
2022/12/25 15:10:40;;;;;;;7.90;4.05;;;15.80;72.30;;;;;;10361364;28;20042;-53
2022/12/25 15:15:59;;;;;;;8.75;4.50;;;15.80;72.30;;;;;;10361712;28;20050;-52
2022/12/25 15:21:01;;;;;;;12.37;4.50;;;15.80;72.40;;;;;;10361734;28;20446;-52
2022/12/25 15:26:02;;;;;;;8.48;4.15;;;15.70;72.40;;;;;;10360089;28;20030;-54
2022/12/25 15:31:02;;;;;;;5.40;3.83;;;15.70;73.00;;;;;;10361303;28;20548;-55
2022/12/25 15:36:03;;;;;;;7.72;3.80;;;15.70;72.50;;;;;;10358006;28;20030;-54
2022/12/25 15:47:07;;;;;;;;;;;15.60;72.40;;;;;;10282527;28;20791;-53
2022/12/25 15:52:15;;;;;;;8.63;3.40;;;15.70;72.20;;;;;;10368191;28;20004;-53
2022/12/25 15:57:20;;;;;;;5.13;2.92;;;15.70;72.10;;;;;;10366493;28;20133;-52
2022/12/25 16:02:21;;;;;;;6.32;2.92;;;15.70;72.00;;;;;;10368961;28;20533;-54
2022/12/25 16:07:23;;;;;;;5.22;2.85;;;15.80;71.80;;;;;;10367752;28;20126;-54
2022/12/25 16:12:24;;;;;;;4.45;2.75;;;15.80;71.40;;;;;;10365367;28;20041;-51
2022/12/25 16:17:25;;;;;;;5.22;3.33;;;15.90;71.10;;;;;;10364703;28;20022;-51
2022/12/25 16:22:26;;;;;;;4.72;3.40;;;15.90;71.00;;;;;;10365250;28;20075;-53
2022/12/25 16:27:26;;;;;;;4.90;3.30;;;15.90;71.00;;;;;;10365458;28;20040;-54
2022/12/25 16:32:28;;;;;;;5.38;3.10;;;15.90;70.90;;;;;;10364903;28;20018;-53
2022/12/25 16:37:28;;;;;;;6.93;3.28;;;16.00;70.80;;;;;;10365122;28;20113;-52
2022/12/25 16:42:29;;;;;;;4.88;3.45;;;15.90;70.70;;;;;;10358428;28;20022;-53
2022/12/25 16:47:30;;;;;;;5.03;3.70;;;15.90;70.70;;;;;;10364477;28;20121;-54
2022/12/25 16:52:31;;;;;;;4.88;3.20;;;16.00;70.70;;;;;;10364264;28;20049;-55
2022/12/25 16:57:32;;;;;;;3.80;2.75;;;15.90;70.70;;;;;;10361840;28;20032;-52
2022/12/25 17:02:33;;;;;;;3.50;2.50;;;15.90;70.80;;;;;;10340119;28;20058;-53
2022/12/25 17:07:36;;;;;;;4.45;2.50;;;15.90;70.90;;;;;;10323163;28;20101;-52
2022/12/25 17:12:37;;;;;;;5.47;2.97;;;15.90;70.90;;;;;;10321717;28;20047;-52
2022/12/25 17:17:38;;;;;;;3.90;2.70;;;15.90;70.50;;;;;;10322979;28;20485;-53
2022/12/25 17:22:38;;;;;;;4.57;2.65;;;15.90;70.40;;;;;;10339160;28;20026;-53
2022/12/25 17:27:39;;;;;;;4.05;2.60;;;16.00;70.40;;;;;;10364104;28;20549;-51
2022/12/25 17:32:40;;;;;;;8.18;3.72;;;16.00;70.20;;;;;;10361774;28;20061;-54
2022/12/25 17:37:40;;;;;;;5.10;3.47;;;16.00;70.30;;;;;;10362699;28;20064;-53
2022/12/25 17:42:41;;;;;;;5.50;3.53;;;16.00;70.50;;;;;;10335862;28;20063;-50
2022/12/25 17:47:42;;;;;;;4.72;3.00;;;15.90;70.50;;;;;;10321502;28;20052;-53
2022/12/25 17:52:42;;;;;;;5.13;3.15;;;15.90;70.60;;;;;;10320139;28;20049;-50
2022/12/25 17:57:43;;;;;;;7.43;3.67;;;16.00;70.40;;;;;;10321624;28;20041;-54
2022/12/25 18:02:45;;;;;;;5.50;3.30;;;15.90;70.40;;;;;;10321707;28;20470;-53
2022/12/25 18:07:46;;;;;;;4.88;2.90;;;16.00;70.40;;;;;;10320812;28;20029;-53
2022/12/25 18:12:47;;;;;;;4.25;2.97;;;15.90;70.50;;;;;;10321428;28;20501;-51
2022/12/25 18:17:47;;;;;;;5.88;3.42;;;15.80;70.60;;;;;;10320935;28;20031;-51
2022/12/25 18:22:48;;;;;;;4.90;3.00;;;15.90;70.50;;;;;;10338492;28;20472;-53
2022/12/25 18:27:49;;;;;;;4.63;3.45;;;15.90;70.20;;;;;;10361375;28;20129;-54
2022/12/25 18:32:50;;;;;;;5.45;3.13;;;16.00;70.00;;;;;;10359875;28;20620;-50
2022/12/25 18:37:51;;;;;;;5.18;3.08;;;16.00;70.10;;;;;;10360711;28;20025;-51
2022/12/25 18:42:52;;;;;;;4.60;3.38;;;16.00;70.20;;;;;;10332541;28;20429;-53
2022/12/25 18:47:52;;;;;;;3.95;3.00;;;15.90;70.20;;;;;;10320099;28;20319;-52
2022/12/25 18:52:53;;;;;;;6.10;3.00;;;16.00;70.10;;;;;;10320159;28;20046;-52
2022/12/25 18:57:54;;;;;;;3.75;2.70;;;16.00;70.10;;;;;;10319703;28;20114;-50
2022/12/25 19:02:57;;;;;;;3.40;2.72;;;16.00;70.10;;;;;;10320147;28;20031;-52
2022/12/25 19:07:58;;;;;;;4.55;2.72;;;16.00;70.20;;;;;;10319841;28;20113;-53
2022/12/25 19:12:59;;;;;;;5.90;3.50;;;15.90;70.10;;;;;;10320157;28;20587;-52
2022/12/25 19:17:59;;;;;;;5.03;3.25;;;16.00;70.00;;;;;;10319444;28;20645;-50
2022/12/25 19:23:00;;;;;;;5.15;2.70;;;16.00;70.00;;;;;;10346172;28;20112;-51
2022/12/25 19:28:00;;;;;;;4.13;2.40;;;15.90;70.10;;;;;;10368008;28;20069;-50
2022/12/25 19:33:01;;;;;;;5.20;2.90;;;15.90;70.10;;;;;;10364995;28;20422;-49
2022/12/25 19:38:02;;;;;;;3.92;3.33;;;16.00;69.90;;;;;;10367243;28;20200;-52
2022/12/25 19:43:03;;;;;;;6.65;3.90;;;16.00;69.80;;;;;;10337341;28;20109;-51
2022/12/25 19:48:04;;;;;;;4.30;2.90;;;16.00;69.80;;;;;;10326110;28;20041;-53
2022/12/25 19:53:05;;;;;;;3.72;2.60;;;15.90;69.90;;;;;;10353587;28;20022;-54
2022/12/25 19:58:05;;;;;;;3.85;2.70;;;16.00;69.90;;;;;;10366370;28;20101;-54
2022/12/25 20:03:07;;;;;;;3.80;2.92;;;16.00;69.80;;;;;;10365573;28;20058;-55
2022/12/25 20:08:09;;;;;;;5.28;3.15;;;16.00;69.80;;;;;;10351314;28;20033;-54
2022/12/25 20:13:10;;;;;;;6.45;4.13;;;15.90;70.40;;;;;;10369083;28;20549;-54
2022/12/25 20:18:10;;;;;;;5.65;3.70;;;15.90;70.90;;;;;;10369236;28;20044;-52
2022/12/25 20:23:11;;;;;;;5.68;3.60;;;16.10;70.50;;;;;;10359476;28;20105;-52
2022/12/25 20:28:12;;;;;;;5.00;3.50;;;16.20;70.50;;;;;;10363521;28;20041;-55
2022/12/25 20:33:12;;;;;;;7.32;4.18;;;16.20;70.80;;;;;;10356958;28;20050;-55
2022/12/25 20:38:14;;;;;;;6.15;3.63;;;16.20;70.60;;;;;;10368484;28;20065;-52
2022/12/25 20:43:14;;;;;;;6.03;3.05;;;16.20;71.00;;;;;;10359077;28;20022;-53
2022/12/25 20:48:15;;;;;;;4.22;3.22;;;16.20;71.10;;;;;;10348753;28;20137;-57
2022/12/25 20:53:17;;;;;;;7.43;3.53;;;16.20;71.00;;;;;;10350229;28;20105;-56
2022/12/25 20:58:18;;;;;;;6.28;3.72;;;16.00;71.10;;;;;;10366368;28;20045;-57
2022/12/25 21:03:18;;;;;;;6.18;3.60;;;15.90;71.30;;;;;;10367685;28;20536;-56
2022/12/25 21:08:23;;;;;;;4.82;3.72;;;15.90;71.40;;;;;;10353756;28;20113;-58
2022/12/25 21:13:24;;;;;;;6.50;4.30;;;15.80;71.40;;;;;;10351388;28;20128;-56
2022/12/25 21:18:27;;;;;;;4.43;3.63;;;15.80;71.50;;;;;;10345304;28;20044;-57
2022/12/25 21:23:27;;;;;;;5.18;3.30;;;15.70;71.50;;;;;;10346344;28;20541;-56
2022/12/25 21:28:31;;;;;;;5.70;3.78;;;15.70;71.50;;;;;;10353045;28;20041;-56
2022/12/25 21:38:54;;;;;;;4.40;3.58;;;15.70;71.70;;;;;;10364884;28;20117;-56
2022/12/25 21:43:55;;;;;;;4.43;3.38;;;15.70;71.50;;;;;;10353262;28;20064;-56
2022/12/25 21:48:57;;;;;;;4.18;3.05;;;15.70;71.40;;;;;;10353616;28;20087;-56
2022/12/25 21:53:58;;;;;;;6.75;3.78;;;15.70;71.40;;;;;;10351426;28;20077;-55
2022/12/25 21:59:04;;;;;;;4.50;3.28;;;15.70;71.80;;;;;;10328502;28;20100;-56
2022/12/25 22:04:08;;;;;;;5.30;3.70;;;15.70;71.20;;;;;;10357689;28;20026;-56
2022/12/25 22:09:08;;;;;;;4.88;3.63;;;15.80;71.00;;;;;;10354448;28;20686;-56
2022/12/25 22:19:48;;;;;;;5.03;4.10;;;15.90;70.60;;;;;;10350073;28;20058;-57
2022/12/25 22:24:50;;;;;;;4.72;3.55;;;15.90;70.40;;;;;;10344110;28;20060;-55
2022/12/25 22:29:51;;;;;;;5.22;3.83;;;15.90;70.50;;;;;;10350513;28;20026;-56
2022/12/25 22:34:52;;;;;;;4.45;3.13;;;15.90;70.60;;;;;;10350841;28;20033;-57
2022/12/25 22:39:53;;;;;;;5.00;3.38;;;15.90;70.20;;;;;;10340762;28;20024;-56
2022/12/25 22:44:53;;;;;;;5.30;3.70;;;15.90;70.20;;;;;;10325330;28;20050;-56
2022/12/25 22:49:54;;;;;;;5.22;3.42;;;15.90;70.20;;;;;;10322899;28;20161;-56
2022/12/25 22:54:55;;;;;;;5.53;3.55;;;16.00;69.90;;;;;;10322189;28;20077;-57
2022/12/25 22:59:55;;;;;;;4.03;3.55;;;16.10;69.80;;;;;;10372150;28;20390;-56
2022/12/25 23:04:56;;;;;;;5.90;3.70;;;16.00;69.80;;;;;;10358884;28;20121;-55
2022/12/25 23:09:57;;;;;;;4.70;3.15;;;16.00;70.00;;;;;;10356964;28;20092;-56
2022/12/25 23:14:57;;;;;;;5.32;3.05;;;15.90;70.20;;;;;;10342643;28;20262;-56
2022/12/25 23:30:37;;;;;;;3.67;2.63;;;16.00;70.20;;;;;;10370225;28;20034;-56
2022/12/25 23:35:38;;;;;;;4.95;3.15;;;15.90;70.30;;;;;;10370246;28;20446;-55
2022/12/25 23:40:39;;;;;;;4.68;3.13;;;15.90;70.30;;;;;;10353394;28;20142;-56
2022/12/25 23:45:39;;;;;;;4.40;3.03;;;15.90;70.10;;;;;;10353136;28;20429;-57
2022/12/25 23:50:40;;;;;;;4.18;3.15;;;15.90;70.10;;;;;;10369083;28;20113;-56
2022/12/25 23:55:41;;;;;;;5.40;3.88;;;15.90;70.30;;;;;;10331683;28;20093;-54
